sensor_id;sensor_type;location;lat;lon;timestamp;P1;durP1;ratioP1;P2;durP2;ratioP2
40022;SDS011;25713;-35.352;149.036;2022-09-28T00:00:21;0.38;;;0.22;;
40022;SDS011;25713;-35.352;149.036;2022-09-28T00:02:50;0.57;;;0.30;;
40022;SDS011;25713;-35.352;149.036;2022-09-28T00:05:23;0.90;;;0.40;;
40022;SDS011;25713;-35.352;149.036;2022-09-28T00:07:52;0.63;;;0.30;;
40022;SDS011;25713;-35.352;149.036;2022-09-28T00:10:22;0.50;;;0.30;;
40022;SDS011;25713;-35.352;149.036;2022-09-28T00:12:52;0.52;;;0.43;;
40022;SDS011;25713;-35.352;149.036;2022-09-28T00:15:21;0.85;;;0.32;;
40022;SDS011;25713;-35.352;149.036;2022-09-28T00:17:51;0.50;;;0.30;;
40022;SDS011;25713;-35.352;149.036;2022-09-28T00:20:22;0.40;;;0.20;;
40022;SDS011;25713;-35.352;149.036;2022-09-28T00:22:52;0.43;;;0.30;;
40022;SDS011;25713;-35.352;149.036;2022-09-28T00:25:21;0.68;;;0.30;;
40022;SDS011;25713;-35.352;149.036;2022-09-28T00:27:51;0.90;;;0.40;;
40022;SDS011;25713;-35.352;149.036;2022-09-28T00:30:20;1.75;;;0.30;;
40022;SDS011;25713;-35.352;149.036;2022-09-28T00:32:50;0.65;;;0.40;;
40022;SDS011;25713;-35.352;149.036;2022-09-28T00:35:19;0.90;;;0.40;;
40022;SDS011;25713;-35.352;149.036;2022-09-28T00:37:50;0.20;;;0.20;;
40022;SDS011;25713;-35.352;149.036;2022-09-28T00:40:20;0.30;;;0.30;;
40022;SDS011;25713;-35.352;149.036;2022-09-28T00:42:49;0.57;;;0.50;;
40022;SDS011;25713;-35.352;149.036;2022-09-28T00:45:18;0.28;;;0.28;;
40022;SDS011;25713;-35.352;149.036;2022-09-28T00:47:49;0.32;;;0.30;;
40022;SDS011;25713;-35.352;149.036;2022-09-28T00:50:25;1.17;;;0.40;;
40022;SDS011;25713;-35.352;149.036;2022-09-28T00:52:57;1.13;;;0.45;;
40022;SDS011;25713;-35.352;149.036;2022-09-28T00:55:32;0.65;;;0.60;;
40022;SDS011;25713;-35.352;149.036;2022-09-28T00:58:06;0.77;;;0.40;;
40022;SDS011;25713;-35.352;149.036;2022-09-28T01:00:38;0.22;;;0.22;;
40022;SDS011;25713;-35.352;149.036;2022-09-28T01:03:08;0.40;;;0.20;;
40022;SDS011;25713;-35.352;149.036;2022-09-28T01:05:41;0.75;;;0.40;;
40022;SDS011;25713;-35.352;149.036;2022-09-28T01:08:11;0.95;;;0.43;;
40022;SDS011;25713;-35.352;149.036;2022-09-28T01:10:41;0.57;;;0.40;;
40022;SDS011;25713;-35.352;149.036;2022-09-28T01:13:13;1.67;;;0.40;;
40022;SDS011;25713;-35.352;149.036;2022-09-28T01:15:46;0.95;;;0.40;;
40022;SDS011;25713;-35.352;149.036;2022-09-28T01:18:26;0.50;;;0.40;;
40022;SDS011;25713;-35.352;149.036;2022-09-28T01:21:02;0.75;;;0.30;;
40022;SDS011;25713;-35.352;149.036;2022-09-28T01:23:54;0.30;;;0.30;;
40022;SDS011;25713;-35.352;149.036;2022-09-28T01:29:16;0.38;;;0.30;;
40022;SDS011;25713;-35.352;149.036;2022-09-28T01:31:57;0.50;;;0.30;;
40022;SDS011;25713;-35.352;149.036;2022-09-28T01:34:33;0.38;;;0.38;;
40022;SDS011;25713;-35.352;149.036;2022-09-28T01:37:09;0.30;;;0.30;;
40022;SDS011;25713;-35.352;149.036;2022-09-28T01:39:42;0.60;;;0.30;;
40022;SDS011;25713;-35.352;149.036;2022-09-28T01:42:17;0.30;;;0.30;;
40022;SDS011;25713;-35.352;149.036;2022-09-28T01:44:50;0.40;;;0.30;;
40022;SDS011;25713;-35.352;149.036;2022-09-28T01:47:23;0.90;;;0.40;;
40022;SDS011;25713;-35.352;149.036;2022-09-28T01:49:57;0.20;;;0.20;;
40022;SDS011;25713;-35.352;149.036;2022-09-28T01:52:32;0.80;;;0.30;;
40022;SDS011;25713;-35.352;149.036;2022-09-28T01:55:08;0.30;;;0.30;;
40022;SDS011;25713;-35.352;149.036;2022-09-28T01:57:41;0.30;;;0.30;;
40022;SDS011;25713;-35.352;149.036;2022-09-28T02:00:15;0.30;;;0.30;;
40022;SDS011;25713;-35.352;149.036;2022-09-28T02:02:51;0.25;;;0.25;;
40022;SDS011;25713;-35.352;149.036;2022-09-28T02:08:02;0.20;;;0.20;;
40022;SDS011;25713;-35.352;149.036;2022-09-28T02:10:37;1.75;;;0.30;;
40022;SDS011;25713;-35.352;149.036;2022-09-28T02:13:11;0.20;;;0.20;;
40022;SDS011;25713;-35.352;149.036;2022-09-28T02:15:45;0.20;;;0.20;;
40022;SDS011;25713;-35.352;149.036;2022-09-28T02:18:18;0.50;;;0.17;;
40022;SDS011;25713;-35.352;149.036;2022-09-28T02:20:48;0.43;;;0.28;;
40022;SDS011;25713;-35.352;149.036;2022-09-28T02:23:24;0.60;;;0.30;;
40022;SDS011;25713;-35.352;149.036;2022-09-28T02:25:59;0.20;;;0.20;;
40022;SDS011;25713;-35.352;149.036;2022-09-28T02:28:36;0.68;;;0.30;;
40022;SDS011;25713;-35.352;149.036;2022-09-28T02:31:06;0.30;;;0.30;;
40022;SDS011;25713;-35.352;149.036;2022-09-28T02:33:35;0.47;;;0.30;;
40022;SDS011;25713;-35.352;149.036;2022-09-28T02:36:07;0.22;;;0.20;;
40022;SDS011;25713;-35.352;149.036;2022-09-28T02:38:38;0.32;;;0.30;;
40022;SDS011;25713;-35.352;149.036;2022-09-28T02:41:09;0.20;;;0.20;;
40022;SDS011;25713;-35.352;149.036;2022-09-28T02:43:51;0.30;;;0.22;;
40022;SDS011;25713;-35.352;149.036;2022-09-28T02:46:31;0.40;;;0.30;;
40022;SDS011;25713;-35.352;149.036;2022-09-28T02:49:22;0.60;;;0.40;;
40022;SDS011;25713;-35.352;149.036;2022-09-28T02:52:04;0.20;;;0.20;;
40022;SDS011;25713;-35.352;149.036;2022-09-28T02:55:00;0.35;;;0.30;;
40022;SDS011;25713;-35.352;149.036;2022-09-28T02:57:43;0.20;;;0.20;;
40022;SDS011;25713;-35.352;149.036;2022-09-28T03:00:29;0.30;;;0.30;;
40022;SDS011;25713;-35.352;149.036;2022-09-28T03:03:06;0.28;;;0.28;;
40022;SDS011;25713;-35.352;149.036;2022-09-28T03:05:43;0.20;;;0.20;;
40022;SDS011;25713;-35.352;149.036;2022-09-28T03:08:21;0.55;;;0.32;;
40022;SDS011;25713;-35.352;149.036;2022-09-28T03:10:55;0.30;;;0.20;;
40022;SDS011;25713;-35.352;149.036;2022-09-28T03:13:28;0.20;;;0.20;;
40022;SDS011;25713;-35.352;149.036;2022-09-28T03:16:12;0.32;;;0.30;;
40022;SDS011;25713;-35.352;149.036;2022-09-28T03:18:44;0.30;;;0.30;;
40022;SDS011;25713;-35.352;149.036;2022-09-28T03:21:14;0.30;;;0.30;;
40022;SDS011;25713;-35.352;149.036;2022-09-28T03:23:44;0.30;;;0.30;;
40022;SDS011;25713;-35.352;149.036;2022-09-28T03:26:13;0.35;;;0.22;;
40022;SDS011;25713;-35.352;149.036;2022-09-28T03:28:43;0.52;;;0.20;;
40022;SDS011;25713;-35.352;149.036;2022-09-28T03:31:20;0.63;;;0.32;;
40022;SDS011;25713;-35.352;149.036;2022-09-28T03:33:50;0.88;;;0.30;;
40022;SDS011;25713;-35.352;149.036;2022-09-28T03:36:19;0.40;;;0.30;;
40022;SDS011;25713;-35.352;149.036;2022-09-28T03:38:50;0.20;;;0.20;;
40022;SDS011;25713;-35.352;149.036;2022-09-28T03:41:20;0.30;;;0.30;;
40022;SDS011;25713;-35.352;149.036;2022-09-28T03:43:50;0.57;;;0.20;;
40022;SDS011;25713;-35.352;149.036;2022-09-28T03:46:24;0.40;;;0.30;;
40022;SDS011;25713;-35.352;149.036;2022-09-28T03:48:57;0.30;;;0.30;;
40022;SDS011;25713;-35.352;149.036;2022-09-28T03:51:29;0.45;;;0.40;;
40022;SDS011;25713;-35.352;149.036;2022-09-28T03:53:58;0.50;;;0.45;;
40022;SDS011;25713;-35.352;149.036;2022-09-28T03:56:28;0.28;;;0.28;;
40022;SDS011;25713;-35.352;149.036;2022-09-28T03:58:57;0.30;;;0.30;;
40022;SDS011;25713;-35.352;149.036;2022-09-28T04:01:30;1.17;;;0.30;;
40022;SDS011;25713;-35.352;149.036;2022-09-28T04:04:00;2.10;;;0.40;;
40022;SDS011;25713;-35.352;149.036;2022-09-28T04:06:30;0.20;;;0.20;;
40022;SDS011;25713;-35.352;149.036;2022-09-28T04:09:00;3.35;;;0.32;;
40022;SDS011;25713;-35.352;149.036;2022-09-28T04:11:30;4.10;;;0.50;;
40022;SDS011;25713;-35.352;149.036;2022-09-28T04:13:59;0.63;;;0.40;;
40022;SDS011;25713;-35.352;149.036;2022-09-28T04:16:32;0.77;;;0.30;;
40022;SDS011;25713;-35.352;149.036;2022-09-28T04:19:10;1.55;;;0.45;;
40022;SDS011;25713;-35.352;149.036;2022-09-28T04:21:49;0.32;;;0.32;;
40022;SDS011;25713;-35.352;149.036;2022-09-28T04:24:19;0.40;;;0.30;;
40022;SDS011;25713;-35.352;149.036;2022-09-28T04:26:48;0.40;;;0.40;;
40022;SDS011;25713;-35.352;149.036;2022-09-28T04:29:18;0.38;;;0.30;;
40022;SDS011;25713;-35.352;149.036;2022-09-28T04:32:00;0.20;;;0.20;;
40022;SDS011;25713;-35.352;149.036;2022-09-28T04:34:36;0.40;;;0.30;;
40022;SDS011;25713;-35.352;149.036;2022-09-28T04:37:05;0.40;;;0.40;;
40022;SDS011;25713;-35.352;149.036;2022-09-28T04:39:34;0.30;;;0.30;;
40022;SDS011;25713;-35.352;149.036;2022-09-28T04:42:04;0.38;;;0.30;;
40022;SDS011;25713;-35.352;149.036;2022-09-28T04:44:36;0.40;;;0.40;;
40022;SDS011;25713;-35.352;149.036;2022-09-28T04:47:10;0.40;;;0.30;;
40022;SDS011;25713;-35.352;149.036;2022-09-28T04:50:11;0.32;;;0.32;;
40022;SDS011;25713;-35.352;149.036;2022-09-28T04:53:00;0.40;;;0.40;;
40022;SDS011;25713;-35.352;149.036;2022-09-28T04:55:30;0.40;;;0.38;;
40022;SDS011;25713;-35.352;149.036;2022-09-28T04:57:59;1.38;;;0.32;;
40022;SDS011;25713;-35.352;149.036;2022-09-28T05:00:30;0.60;;;0.40;;
40022;SDS011;25713;-35.352;149.036;2022-09-28T05:03:09;0.40;;;0.30;;
40022;SDS011;25713;-35.352;149.036;2022-09-28T05:06:04;0.40;;;0.30;;
40022;SDS011;25713;-35.352;149.036;2022-09-28T05:08:41;0.40;;;0.30;;
40022;SDS011;25713;-35.352;149.036;2022-09-28T05:11:11;0.32;;;0.32;;
40022;SDS011;25713;-35.352;149.036;2022-09-28T05:13:42;0.30;;;0.30;;
40022;SDS011;25713;-35.352;149.036;2022-09-28T05:16:13;0.55;;;0.32;;
40022;SDS011;25713;-35.352;149.036;2022-09-28T05:19:06;0.40;;;0.30;;
40022;SDS011;25713;-35.352;149.036;2022-09-28T05:21:36;0.32;;;0.32;;
40022;SDS011;25713;-35.352;149.036;2022-09-28T05:24:05;0.30;;;0.30;;
40022;SDS011;25713;-35.352;149.036;2022-09-28T05:26:37;0.45;;;0.30;;
40022;SDS011;25713;-35.352;149.036;2022-09-28T05:29:09;0.40;;;0.30;;
40022;SDS011;25713;-35.352;149.036;2022-09-28T05:31:57;0.30;;;0.30;;
40022;SDS011;25713;-35.352;149.036;2022-09-28T05:35:00;0.70;;;0.40;;
40022;SDS011;25713;-35.352;149.036;2022-09-28T05:37:38;0.45;;;0.40;;
40022;SDS011;25713;-35.352;149.036;2022-09-28T05:40:08;0.95;;;0.40;;
40022;SDS011;25713;-35.352;149.036;2022-09-28T05:42:39;0.40;;;0.40;;
40022;SDS011;25713;-35.352;149.036;2022-09-28T05:45:09;0.85;;;0.40;;
40022;SDS011;25713;-35.352;149.036;2022-09-28T05:47:41;0.30;;;0.30;;
40022;SDS011;25713;-35.352;149.036;2022-09-28T05:50:15;0.32;;;0.32;;
40022;SDS011;25713;-35.352;149.036;2022-09-28T05:52:45;0.32;;;0.30;;
40022;SDS011;25713;-35.352;149.036;2022-09-28T05:55:14;0.30;;;0.30;;
40022;SDS011;25713;-35.352;149.036;2022-09-28T05:57:44;0.40;;;0.40;;
40022;SDS011;25713;-35.352;149.036;2022-09-28T06:00:14;0.20;;;0.20;;
40022;SDS011;25713;-35.352;149.036;2022-09-28T06:02:55;0.43;;;0.30;;
40022;SDS011;25713;-35.352;149.036;2022-09-28T06:05:27;0.60;;;0.30;;
40022;SDS011;25713;-35.352;149.036;2022-09-28T06:07:57;0.50;;;0.40;;
40022;SDS011;25713;-35.352;149.036;2022-09-28T06:10:27;0.30;;;0.30;;
40022;SDS011;25713;-35.352;149.036;2022-09-28T06:15:28;0.20;;;0.20;;
40022;SDS011;25713;-35.352;149.036;2022-09-28T06:18:00;0.40;;;0.30;;
40022;SDS011;25713;-35.352;149.036;2022-09-28T06:20:39;0.88;;;0.40;;
40022;SDS011;25713;-35.352;149.036;2022-09-28T06:23:13;0.30;;;0.30;;
40022;SDS011;25713;-35.352;149.036;2022-09-28T06:25:43;0.50;;;0.30;;
40022;SDS011;25713;-35.352;149.036;2022-09-28T06:28:13;0.40;;;0.30;;
40022;SDS011;25713;-35.352;149.036;2022-09-28T06:30:43;0.32;;;0.20;;
40022;SDS011;25713;-35.352;149.036;2022-09-28T06:33:16;0.20;;;0.20;;
40022;SDS011;25713;-35.352;149.036;2022-09-28T06:35:48;0.40;;;0.30;;
40022;SDS011;25713;-35.352;149.036;2022-09-28T06:38:17;0.30;;;0.30;;
40022;SDS011;25713;-35.352;149.036;2022-09-28T06:40:48;0.30;;;0.30;;
40022;SDS011;25713;-35.352;149.036;2022-09-28T06:43:18;0.20;;;0.20;;
40022;SDS011;25713;-35.352;149.036;2022-09-28T06:46:05;0.22;;;0.20;;
40022;SDS011;25713;-35.352;149.036;2022-09-28T06:49:02;0.20;;;0.20;;
40022;SDS011;25713;-35.352;149.036;2022-09-28T06:51:53;0.43;;;0.20;;
40022;SDS011;25713;-35.352;149.036;2022-09-28T06:54:35;0.95;;;0.20;;
40022;SDS011;25713;-35.352;149.036;2022-09-28T06:57:21;1.42;;;0.30;;
40022;SDS011;25713;-35.352;149.036;2022-09-28T06:59:51;0.20;;;0.20;;
40022;SDS011;25713;-35.352;149.036;2022-09-28T07:02:20;0.30;;;0.30;;
40022;SDS011;25713;-35.352;149.036;2022-09-28T07:05:11;0.20;;;0.20;;
40022;SDS011;25713;-35.352;149.036;2022-09-28T07:07:56;0.50;;;0.25;;
40022;SDS011;25713;-35.352;149.036;2022-09-28T07:10:46;0.52;;;0.20;;
40022;SDS011;25713;-35.352;149.036;2022-09-28T07:13:23;0.20;;;0.20;;
40022;SDS011;25713;-35.352;149.036;2022-09-28T07:15:56;0.20;;;0.20;;
40022;SDS011;25713;-35.352;149.036;2022-09-28T07:18:27;0.20;;;0.20;;
40022;SDS011;25713;-35.352;149.036;2022-09-28T07:20:58;0.30;;;0.30;;
40022;SDS011;25713;-35.352;149.036;2022-09-28T07:23:29;2.22;;;0.30;;
40022;SDS011;25713;-35.352;149.036;2022-09-28T07:26:16;0.20;;;0.20;;
40022;SDS011;25713;-35.352;149.036;2022-09-28T07:29:12;1.52;;;0.20;;
40022;SDS011;25713;-35.352;149.036;2022-09-28T07:32:12;0.20;;;0.20;;
40022;SDS011;25713;-35.352;149.036;2022-09-28T07:35:15;0.75;;;0.30;;
40022;SDS011;25713;-35.352;149.036;2022-09-28T07:37:55;0.40;;;0.22;;
40022;SDS011;25713;-35.352;149.036;2022-09-28T07:40:27;0.40;;;0.30;;
40022;SDS011;25713;-35.352;149.036;2022-09-28T07:43:02;0.20;;;0.20;;
40022;SDS011;25713;-35.352;149.036;2022-09-28T07:45:32;0.38;;;0.30;;
40022;SDS011;25713;-35.352;149.036;2022-09-28T07:48:02;0.28;;;0.28;;
40022;SDS011;25713;-35.352;149.036;2022-09-28T07:50:48;0.20;;;0.20;;
40022;SDS011;25713;-35.352;149.036;2022-09-28T07:53:53;0.38;;;0.30;;
40022;SDS011;25713;-35.352;149.036;2022-09-28T07:57:02;0.22;;;0.20;;
40022;SDS011;25713;-35.352;149.036;2022-09-28T07:59:47;0.43;;;0.30;;
40022;SDS011;25713;-35.352;149.036;2022-09-28T08:02:34;0.32;;;0.30;;
40022;SDS011;25713;-35.352;149.036;2022-09-28T08:05:05;0.28;;;0.20;;
40022;SDS011;25713;-35.352;149.036;2022-09-28T08:07:34;0.40;;;0.20;;
40022;SDS011;25713;-35.352;149.036;2022-09-28T08:10:07;2.03;;;0.30;;
40022;SDS011;25713;-35.352;149.036;2022-09-28T08:13:14;0.30;;;0.20;;
40022;SDS011;25713;-35.352;149.036;2022-09-28T08:15:59;0.90;;;0.30;;
40022;SDS011;25713;-35.352;149.036;2022-09-28T08:21:17;0.47;;;0.20;;
40022;SDS011;25713;-35.352;149.036;2022-09-28T08:23:47;0.32;;;0.28;;
40022;SDS011;25713;-35.352;149.036;2022-09-28T08:26:17;0.80;;;0.25;;
40022;SDS011;25713;-35.352;149.036;2022-09-28T08:28:49;0.50;;;0.28;;
40022;SDS011;25713;-35.352;149.036;2022-09-28T08:31:47;0.52;;;0.20;;
40022;SDS011;25713;-35.352;149.036;2022-09-28T08:34:52;3.60;;;0.30;;
40022;SDS011;25713;-35.352;149.036;2022-09-28T08:40:21;0.20;;;0.20;;
40022;SDS011;25713;-35.352;149.036;2022-09-28T08:43:26;0.20;;;0.20;;
40022;SDS011;25713;-35.352;149.036;2022-09-28T08:46:31;0.47;;;0.20;;
40022;SDS011;25713;-35.352;149.036;2022-09-28T08:49:25;0.43;;;0.20;;
40022;SDS011;25713;-35.352;149.036;2022-09-28T08:52:00;0.43;;;0.40;;
40022;SDS011;25713;-35.352;149.036;2022-09-28T08:54:51;0.30;;;0.30;;
40022;SDS011;25713;-35.352;149.036;2022-09-28T08:57:39;0.50;;;0.30;;
40022;SDS011;25713;-35.352;149.036;2022-09-28T09:00:18;0.30;;;0.30;;
40022;SDS011;25713;-35.352;149.036;2022-09-28T09:05:20;0.52;;;0.40;;
40022;SDS011;25713;-35.352;149.036;2022-09-28T09:08:10;0.55;;;0.40;;
40022;SDS011;25713;-35.352;149.036;2022-09-28T09:10:56;1.52;;;0.50;;
40022;SDS011;25713;-35.352;149.036;2022-09-28T09:16:21;0.70;;;0.43;;
40022;SDS011;25713;-35.352;149.036;2022-09-28T09:19:09;1.23;;;0.60;;
40022;SDS011;25713;-35.352;149.036;2022-09-28T09:22:13;0.77;;;0.55;;
40022;SDS011;25713;-35.352;149.036;2022-09-28T09:24:47;0.85;;;0.45;;
40022;SDS011;25713;-35.352;149.036;2022-09-28T09:27:29;0.88;;;0.68;;
40022;SDS011;25713;-35.352;149.036;2022-09-28T09:30:14;0.95;;;0.55;;
40022;SDS011;25713;-35.352;149.036;2022-09-28T09:32:58;0.80;;;0.70;;
40022;SDS011;25713;-35.352;149.036;2022-09-28T09:36:01;0.70;;;0.50;;
40022;SDS011;25713;-35.352;149.036;2022-09-28T09:39:00;0.82;;;0.50;;
40022;SDS011;25713;-35.352;149.036;2022-09-28T09:42:07;1.52;;;0.60;;
40022;SDS011;25713;-35.352;149.036;2022-09-28T09:48:33;0.63;;;0.60;;
40022;SDS011;25713;-35.352;149.036;2022-09-28T09:51:11;0.90;;;0.60;;
40022;SDS011;25713;-35.352;149.036;2022-09-28T09:53:47;1.60;;;0.60;;
40022;SDS011;25713;-35.352;149.036;2022-09-28T09:56:21;0.70;;;0.50;;
40022;SDS011;25713;-35.352;149.036;2022-09-28T09:59:06;0.98;;;0.70;;
40022;SDS011;25713;-35.352;149.036;2022-09-28T10:02:00;0.43;;;0.43;;
40022;SDS011;25713;-35.352;149.036;2022-09-28T10:04:48;0.50;;;0.50;;
40022;SDS011;25713;-35.352;149.036;2022-09-28T10:07:31;0.70;;;0.50;;
40022;SDS011;25713;-35.352;149.036;2022-09-28T10:10:10;0.63;;;0.50;;
40022;SDS011;25713;-35.352;149.036;2022-09-28T10:12:48;0.82;;;0.70;;
40022;SDS011;25713;-35.352;149.036;2022-09-28T10:15:22;0.38;;;0.38;;
40022;SDS011;25713;-35.352;149.036;2022-09-28T10:18:08;0.90;;;0.40;;
40022;SDS011;25713;-35.352;149.036;2022-09-28T10:20:58;0.38;;;0.30;;
40022;SDS011;25713;-35.352;149.036;2022-09-28T10:23:52;0.47;;;0.40;;
40022;SDS011;25713;-35.352;149.036;2022-09-28T10:26:26;0.40;;;0.40;;
40022;SDS011;25713;-35.352;149.036;2022-09-28T10:29:02;0.30;;;0.30;;
40022;SDS011;25713;-35.352;149.036;2022-09-28T10:31:39;1.08;;;0.50;;
40022;SDS011;25713;-35.352;149.036;2022-09-28T10:34:32;0.73;;;0.50;;
40022;SDS011;25713;-35.352;149.036;2022-09-28T10:37:09;0.88;;;0.50;;
40022;SDS011;25713;-35.352;149.036;2022-09-28T10:39:59;1.23;;;0.47;;
40022;SDS011;25713;-35.352;149.036;2022-09-28T10:42:34;0.88;;;0.60;;
40022;SDS011;25713;-35.352;149.036;2022-09-28T10:47:50;0.85;;;0.70;;
40022;SDS011;25713;-35.352;149.036;2022-09-28T10:50:21;0.88;;;0.70;;
40022;SDS011;25713;-35.352;149.036;2022-09-28T10:53:10;1.23;;;0.70;;
40022;SDS011;25713;-35.352;149.036;2022-09-28T10:56:06;2.50;;;0.80;;
40022;SDS011;25713;-35.352;149.036;2022-09-28T10:58:46;1.42;;;0.70;;
40022;SDS011;25713;-35.352;149.036;2022-09-28T11:01:24;0.90;;;0.75;;
40022;SDS011;25713;-35.352;149.036;2022-09-28T11:03:58;0.70;;;0.63;;
40022;SDS011;25713;-35.352;149.036;2022-09-28T11:06:29;0.80;;;0.60;;
40022;SDS011;25713;-35.352;149.036;2022-09-28T11:09:03;0.98;;;0.77;;
40022;SDS011;25713;-35.352;149.036;2022-09-28T11:11:54;2.60;;;0.70;;
40022;SDS011;25713;-35.352;149.036;2022-09-28T11:14:25;0.90;;;0.70;;
40022;SDS011;25713;-35.352;149.036;2022-09-28T11:17:15;1.95;;;0.60;;
40022;SDS011;25713;-35.352;149.036;2022-09-28T11:19:51;0.70;;;0.60;;
40022;SDS011;25713;-35.352;149.036;2022-09-28T11:22:22;0.60;;;0.50;;
40022;SDS011;25713;-35.352;149.036;2022-09-28T11:30:48;0.40;;;0.40;;
40022;SDS011;25713;-35.352;149.036;2022-09-28T11:33:23;1.15;;;0.40;;
40022;SDS011;25713;-35.352;149.036;2022-09-28T11:36:27;0.40;;;0.40;;
40022;SDS011;25713;-35.352;149.036;2022-09-28T11:39:13;0.50;;;0.50;;
40022;SDS011;25713;-35.352;149.036;2022-09-28T11:41:56;1.60;;;0.43;;
40022;SDS011;25713;-35.352;149.036;2022-09-28T11:44:42;0.40;;;0.40;;
40022;SDS011;25713;-35.352;149.036;2022-09-28T11:47:20;0.77;;;0.40;;
40022;SDS011;25713;-35.352;149.036;2022-09-28T11:50:24;0.40;;;0.40;;
40022;SDS011;25713;-35.352;149.036;2022-09-28T11:53:01;0.40;;;0.40;;
40022;SDS011;25713;-35.352;149.036;2022-09-28T11:55:39;1.35;;;0.40;;
40022;SDS011;25713;-35.352;149.036;2022-09-28T11:58:12;0.30;;;0.30;;
40022;SDS011;25713;-35.352;149.036;2022-09-28T12:00:50;0.47;;;0.38;;
40022;SDS011;25713;-35.352;149.036;2022-09-28T12:03:37;0.43;;;0.35;;
40022;SDS011;25713;-35.352;149.036;2022-09-28T12:06:11;0.50;;;0.30;;
40022;SDS011;25713;-35.352;149.036;2022-09-28T12:08:45;0.22;;;0.20;;
40022;SDS011;25713;-35.352;149.036;2022-09-28T12:11:38;0.45;;;0.40;;
40022;SDS011;25713;-35.352;149.036;2022-09-28T12:14:23;0.77;;;0.40;;
40022;SDS011;25713;-35.352;149.036;2022-09-28T12:16:59;0.50;;;0.40;;
40022;SDS011;25713;-35.352;149.036;2022-09-28T12:19:33;0.98;;;0.43;;
40022;SDS011;25713;-35.352;149.036;2022-09-28T12:22:10;0.50;;;0.40;;
40022;SDS011;25713;-35.352;149.036;2022-09-28T12:24:44;0.80;;;0.50;;
40022;SDS011;25713;-35.352;149.036;2022-09-28T12:27:19;0.95;;;0.40;;
40022;SDS011;25713;-35.352;149.036;2022-09-28T12:29:55;0.43;;;0.30;;
40022;SDS011;25713;-35.352;149.036;2022-09-28T12:32:31;0.52;;;0.50;;
40022;SDS011;25713;-35.352;149.036;2022-09-28T12:35:09;0.38;;;0.30;;
40022;SDS011;25713;-35.352;149.036;2022-09-28T12:37:44;1.33;;;0.30;;
40022;SDS011;25713;-35.352;149.036;2022-09-28T12:40:35;0.52;;;0.30;;
40022;SDS011;25713;-35.352;149.036;2022-09-28T12:43:12;0.55;;;0.38;;
40022;SDS011;25713;-35.352;149.036;2022-09-28T12:46:13;0.80;;;0.50;;
40022;SDS011;25713;-35.352;149.036;2022-09-28T12:52:14;0.82;;;0.50;;
40022;SDS011;25713;-35.352;149.036;2022-09-28T12:55:03;0.32;;;0.30;;
40022;SDS011;25713;-35.352;149.036;2022-09-28T12:57:46;0.52;;;0.50;;
40022;SDS011;25713;-35.352;149.036;2022-09-28T13:00:23;0.68;;;0.50;;
40022;SDS011;25713;-35.352;149.036;2022-09-28T13:06:03;0.30;;;0.30;;
40022;SDS011;25713;-35.352;149.036;2022-09-28T13:08:47;0.40;;;0.40;;
40022;SDS011;25713;-35.352;149.036;2022-09-28T13:11:28;0.40;;;0.40;;
40022;SDS011;25713;-35.352;149.036;2022-09-28T13:14:21;0.30;;;0.30;;
40022;SDS011;25713;-35.352;149.036;2022-09-28T13:17:03;0.52;;;0.40;;
40022;SDS011;25713;-35.352;149.036;2022-09-28T13:19:43;0.30;;;0.30;;
40022;SDS011;25713;-35.352;149.036;2022-09-28T13:22:22;0.70;;;0.60;;
40022;SDS011;25713;-35.352;149.036;2022-09-28T13:25:03;0.25;;;0.25;;
40022;SDS011;25713;-35.352;149.036;2022-09-28T13:27:38;0.50;;;0.30;;
40022;SDS011;25713;-35.352;149.036;2022-09-28T13:30:12;1.10;;;0.40;;
40022;SDS011;25713;-35.352;149.036;2022-09-28T13:32:42;0.20;;;0.20;;
40022;SDS011;25713;-35.352;149.036;2022-09-28T13:35:13;0.35;;;0.30;;
40022;SDS011;25713;-35.352;149.036;2022-09-28T13:37:44;0.38;;;0.30;;
40022;SDS011;25713;-35.352;149.036;2022-09-28T13:40:15;0.40;;;0.30;;
40022;SDS011;25713;-35.352;149.036;2022-09-28T13:42:57;0.50;;;0.35;;
40022;SDS011;25713;-35.352;149.036;2022-09-28T13:45:53;0.30;;;0.30;;
40022;SDS011;25713;-35.352;149.036;2022-09-28T13:48:31;0.30;;;0.30;;
40022;SDS011;25713;-35.352;149.036;2022-09-28T13:51:23;0.20;;;0.20;;
40022;SDS011;25713;-35.352;149.036;2022-09-28T13:54:16;0.65;;;0.30;;
40022;SDS011;25713;-35.352;149.036;2022-09-28T13:57:00;1.23;;;0.40;;
40022;SDS011;25713;-35.352;149.036;2022-09-28T13:59:44;0.32;;;0.32;;
40022;SDS011;25713;-35.352;149.036;2022-09-28T14:02:27;0.55;;;0.40;;
40022;SDS011;25713;-35.352;149.036;2022-09-28T14:05:02;0.28;;;0.28;;
40022;SDS011;25713;-35.352;149.036;2022-09-28T14:16:21;0.85;;;0.20;;
40022;SDS011;25713;-35.352;149.036;2022-09-28T14:18:51;1.75;;;0.40;;
40022;SDS011;25713;-35.352;149.036;2022-09-28T14:24:34;0.50;;;0.40;;
40022;SDS011;25713;-35.352;149.036;2022-09-28T14:30:32;0.75;;;0.50;;
40022;SDS011;25713;-35.352;149.036;2022-09-28T14:33:23;0.32;;;0.32;;
40022;SDS011;25713;-35.352;149.036;2022-09-28T14:35:55;0.70;;;0.40;;
40022;SDS011;25713;-35.352;149.036;2022-09-28T14:38:28;0.50;;;0.40;;
40022;SDS011;25713;-35.352;149.036;2022-09-28T14:41:01;0.73;;;0.50;;
40022;SDS011;25713;-35.352;149.036;2022-09-28T14:43:34;0.47;;;0.47;;
40022;SDS011;25713;-35.352;149.036;2022-09-28T14:46:29;0.82;;;0.40;;
40022;SDS011;25713;-35.352;149.036;2022-09-28T14:49:03;0.85;;;0.40;;
40022;SDS011;25713;-35.352;149.036;2022-09-28T16:05:36;0.35;;;0.30;;
40022;SDS011;25713;-35.352;149.036;2022-09-28T16:08:13;0.30;;;0.30;;
40022;SDS011;25713;-35.352;149.036;2022-09-28T16:10:50;0.32;;;0.30;;
40022;SDS011;25713;-35.352;149.036;2022-09-28T16:13:34;0.30;;;0.30;;
40022;SDS011;25713;-35.352;149.036;2022-09-28T16:16:13;0.35;;;0.30;;
40022;SDS011;25713;-35.352;149.036;2022-09-28T16:18:46;0.32;;;0.30;;
40022;SDS011;25713;-35.352;149.036;2022-09-28T16:21:30;1.08;;;0.30;;
40022;SDS011;25713;-35.352;149.036;2022-09-28T16:24:17;0.13;;;0.10;;
40022;SDS011;25713;-35.352;149.036;2022-09-28T16:26:53;0.32;;;0.28;;
40022;SDS011;25713;-35.352;149.036;2022-09-28T16:29:26;0.20;;;0.20;;
40022;SDS011;25713;-35.352;149.036;2022-09-28T16:35:13;0.20;;;0.20;;
40022;SDS011;25713;-35.352;149.036;2022-09-28T16:37:53;0.20;;;0.20;;
40022;SDS011;25713;-35.352;149.036;2022-09-28T16:40:28;0.90;;;0.50;;
40022;SDS011;25713;-35.352;149.036;2022-09-28T16:43:00;1.65;;;0.20;;
40022;SDS011;25713;-35.352;149.036;2022-09-28T16:45:32;0.17;;;0.17;;
40022;SDS011;25713;-35.352;149.036;2022-09-28T16:48:01;0.10;;;0.10;;
40022;SDS011;25713;-35.352;149.036;2022-09-28T16:50:32;0.10;;;0.10;;
40022;SDS011;25713;-35.352;149.036;2022-09-28T16:53:07;0.10;;;0.10;;
40022;SDS011;25713;-35.352;149.036;2022-09-28T16:55:40;0.10;;;0.10;;
40022;SDS011;25713;-35.352;149.036;2022-09-28T16:58:10;0.30;;;0.20;;
40022;SDS011;25713;-35.352;149.036;2022-09-28T17:00:39;0.28;;;0.15;;
40022;SDS011;25713;-35.352;149.036;2022-09-28T17:03:15;0.10;;;0.10;;
40022;SDS011;25713;-35.352;149.036;2022-09-28T17:05:45;0.10;;;0.10;;
40022;SDS011;25713;-35.352;149.036;2022-09-28T17:08:18;0.10;;;0.10;;
40022;SDS011;25713;-35.352;149.036;2022-09-28T17:10:49;0.10;;;0.10;;
40022;SDS011;25713;-35.352;149.036;2022-09-28T17:13:21;0.10;;;0.10;;
40022;SDS011;25713;-35.352;149.036;2022-09-28T17:15:51;0.00;;;0.00;;
40022;SDS011;25713;-35.352;149.036;2022-09-28T17:18:20;1.00;;;0.10;;